LDZD/ZAD METAR and TAF weather

Enter ICAO airport designator
Station Type Date Time Source
LDZD METAR 2019/02/22 22:30 UTC NOAA

LDZD 222230Z VRB14G28KT CAVOK 08/M18 Q1024


Station Type Date Time Source
LDZD Decoded METAR 2019/02/22 22:30 UTC NOAA

Zadar / Zemunik, Croatia (LDZD) 44-06N 015-21E
Feb 22, 2019 - 05:30 PM EST / 2019.02.22 2230 UTC
Wind: Variable at 16 MPH (14 KT) gusting to 32 MPH (28 KT):0
Visibility: greater than 7 mile(s):0
Temperature: 46 F (8 C)
Dew Point: 0 F (-18 C)
Relative Humidity: 13%
Pressure (altimeter): 30.24 in. Hg (1024 hPa)
ob: LDZD 222230Z VRB14G28KT CAVOK 08/M18 Q1024
cycle: 22

Station Type Date Time Source
LDZD TAF 2019/02/22 20:40 UTC NOAA

TAF
AMD LDZD 222034Z 2220/2318 04018G30KT CAVOK TX11/2220Z TNM03/2306Z
TEMPO 2220/2318 03025G38KT PROB40
TEMPO 2303/2312 03030G50KT


Example: see airport list